Time;durP1;ratioP1;P1;durP2;ratioP2;P2;SDS_P1;SDS_P2;PMS_P1;PMS_P2;Temp;Humidity;BMP_temperature;BMP_pressure;BME280_temperature;BME280_humidity;BME280_pressure;Samples;Min_cycle;Max_cycle;Signal;HPM_P1;HPM_P2
2021/12/04 00:01:26;;;;;;;;;28.00;23.75;;;;;;;;5040699;28;11503;-77
2021/12/04 00:03:53;;;;;;;;;24.25;19.00;;;;;;;;5048575;28;11451;-77
2021/12/04 00:06:25;;;;;;;;;20.25;18.50;;;;;;;;5060918;28;11427;-78
2021/12/04 00:08:56;;;;;;;;;23.50;22.25;;;;;;;;5046586;28;11461;-79
2021/12/04 00:11:24;;;;;;;;;24.50;23.25;;;;;;;;5043828;28;11493;-79
2021/12/04 00:13:51;;;;;;;;;26.75;25.00;;;;;;;;5048845;28;11542;-78
2021/12/04 00:16:18;;;;;;;;;22.25;18.25;;;;;;;;5056330;28;11521;-77
2021/12/04 00:18:46;;;;;;;;;18.75;16.00;;;;;;;;5028343;28;11451;-78
2021/12/04 00:21:13;;;;;;;;;25.50;19.00;;;;;;;;5027075;28;11318;-78
2021/12/04 00:23:41;;;;;;;;;25.00;18.75;;;;;;;;5027540;28;11218;-79
2021/12/04 00:26:10;;;;;;;;;22.00;20.75;;;;;;;;5053790;28;11259;-79
2021/12/04 00:28:38;;;;;;;;;24.00;21.25;;;;;;;;5043395;28;11283;-80
2021/12/04 00:31:08;;;;;;;;;19.50;18.00;;;;;;;;5025005;28;11054;-79
2021/12/04 00:33:37;;;;;;;;;15.25;14.50;;;;;;;;5043798;28;10948;-77
2021/12/04 00:36:08;;;;;;;;;17.25;17.25;;;;;;;;5046362;28;11109;-77
2021/12/04 00:49:31;;;;;;;;;25.00;25.00;;;;;;;;5038041;28;11240;-78
2021/12/04 00:51:58;;;;;;;;;20.75;20.75;;;;;;;;5049378;28;12082;-79
2021/12/04 00:54:27;;;;;;;;;23.25;23.00;;;;;;;;5040140;28;11249;-79
2021/12/04 00:56:57;;;;;;;;;28.75;28.75;;;;;;;;5042046;28;11213;-79
2021/12/04 00:59:24;;;;;;;;;23.25;18.75;;;;;;;;5044174;28;11195;-77
2021/12/04 01:01:52;;;;;;;;;30.50;30.00;;;;;;;;5041683;28;11213;-78
2021/12/04 01:04:21;;;;;;;;;27.50;23.00;;;;;;;;5043437;28;11311;-78
2021/12/04 01:06:48;;;;;;;;;24.00;23.00;;;;;;;;5036640;28;11131;-78
2021/12/04 01:09:18;;;;;;;;;21.00;18.00;;;;;;;;5043133;28;11193;-80
2021/12/04 01:11:47;;;;;;;;;20.25;18.50;;;;;;;;5038792;28;10863;-77
2021/12/04 01:14:19;;;;;;;;;27.25;19.75;;;;;;;;5042864;28;10969;-78
2021/12/04 01:16:47;;;;;;;;;28.75;24.75;;;;;;;;5044987;28;11628;-78
2021/12/04 01:19:15;;;;;;;;;23.50;23.50;;;;;;;;5033757;28;11140;-78
2021/12/04 01:21:43;;;;;;;;;26.50;24.50;;;;;;;;5055894;28;11252;-78
2021/12/04 01:24:10;;;;;;;;;26.50;26.50;;;;;;;;5030497;28;11081;-77
2021/12/04 01:26:38;;;;;;;;;26.00;24.00;;;;;;;;5045617;28;11249;-78
2021/12/04 01:29:06;;;;;;;;;22.75;20.75;;;;;;;;5039099;28;11115;-78
2021/12/04 01:31:35;;;;;;;;;24.50;23.75;;;;;;;;5047881;28;11074;-78
2021/12/04 01:34:02;;;;;;;;;24.25;22.50;;;;;;;;5058188;28;11154;-78
2021/12/04 01:36:30;;;;;;;;;29.00;28.75;;;;;;;;5047511;28;11122;-78
2021/12/04 01:38:57;;;;;;;;;36.25;28.00;;;;;;;;5051245;28;11023;-78
2021/12/04 01:41:25;;;;;;;;;24.50;24.25;;;;;;;;5047848;28;11069;-78
2021/12/04 01:43:52;;;;;;;;;36.00;28.25;;;;;;;;5029950;28;11060;-78
2021/12/04 01:46:20;;;;;;;;;25.25;25.25;;;;;;;;5048883;28;11054;-78
2021/12/04 01:48:49;;;;;;;;;33.50;30.00;;;;;;;;5033977;28;11130;-77
2021/12/04 01:51:17;;;;;;;;;27.75;20.50;;;;;;;;5019390;28;11812;-77
2021/12/04 01:53:44;;;;;;;;;28.00;23.75;;;;;;;;5023091;28;11186;-77
2021/12/04 01:56:12;;;;;;;;;25.75;25.75;;;;;;;;5020314;28;11051;-78
2021/12/04 01:58:40;;;;;;;;;30.25;24.25;;;;;;;;5062723;28;11833;-78
2021/12/04 02:01:08;;;;;;;;;24.00;24.00;;;;;;;;5046163;28;10909;-77
2021/12/04 02:03:35;;;;;;;;;16.00;16.00;;;;;;;;5045602;28;11022;-77
2021/12/04 02:06:04;;;;;;;;;23.75;16.50;;;;;;;;5055932;28;10955;-78
2021/12/04 02:08:32;;;;;;;;;20.75;20.00;;;;;;;;5053080;28;10891;-78
2021/12/04 02:11:00;;;;;;;;;18.50;17.25;;;;;;;;5027312;28;10882;-77
2021/12/04 02:13:28;;;;;;;;;26.75;24.75;;;;;;;;5046476;28;10721;-77
2021/12/04 02:16:01;;;;;;;;;24.50;23.00;;;;;;;;5042345;28;10812;-78
2021/12/04 02:18:29;;;;;;;;;20.25;17.50;;;;;;;;5028498;28;10864;-78
2021/12/04 02:20:58;;;;;;;;;19.00;18.50;;;;;;;;5025903;28;10794;-77
2021/12/04 02:23:25;;;;;;;;;16.00;16.00;;;;;;;;5044565;28;10863;-77
2021/12/04 02:25:52;;;;;;;;;15.50;15.50;;;;;;;;5041694;28;10661;-78
2021/12/04 02:28:20;;;;;;;;;10.25;9.00;;;;;;;;5041250;28;10746;-77
2021/12/04 02:30:48;;;;;;;;;9.00;9.00;;;;;;;;5039979;28;10490;-78
2021/12/04 02:33:16;;;;;;;;;7.00;7.00;;;;;;;;5038381;28;10440;-76
2021/12/04 02:35:47;;;;;;;;;5.00;5.00;;;;;;;;5036077;28;10606;-77
2021/12/04 02:38:16;;;;;;;;;8.00;5.00;;;;;;;;5027196;28;10497;-77
2021/12/04 02:40:45;;;;;;;;;7.00;5.25;;;;;;;;5045727;28;10480;-77
2021/12/04 02:43:13;;;;;;;;;5.75;5.75;;;;;;;;5045568;28;10985;-77
2021/12/04 02:45:42;;;;;;;;;6.00;4.00;;;;;;;;5038869;28;10472;-77
2021/12/04 02:48:10;;;;;;;;;5.00;5.00;;;;;;;;5048253;28;10402;-77
2021/12/04 02:50:37;;;;;;;;;5.25;5.25;;;;;;;;5044543;28;10321;-77
2021/12/04 02:53:05;;;;;;;;;5.00;5.00;;;;;;;;5045132;28;10311;-77
2021/12/04 02:55:34;;;;;;;;;7.00;6.25;;;;;;;;5044203;28;10419;-77
2021/12/04 02:58:02;;;;;;;;;7.00;5.00;;;;;;;;5045236;28;10377;-77
2021/12/04 03:00:29;;;;;;;;;5.25;5.25;;;;;;;;5044535;28;10434;-77
2021/12/04 03:02:57;;;;;;;;;9.00;9.00;;;;;;;;5043633;28;10444;-77
2021/12/04 03:05:26;;;;;;;;;10.75;8.75;;;;;;;;5028747;28;10456;-77
2021/12/04 03:07:55;;;;;;;;;9.50;8.00;;;;;;;;5052112;28;10485;-78
2021/12/04 03:10:23;;;;;;;;;11.50;9.00;;;;;;;;5035330;28;10467;-78
2021/12/04 03:12:52;;;;;;;;;11.25;9.75;;;;;;;;5043856;28;10518;-77
2021/12/04 03:15:21;;;;;;;;;15.00;12.00;;;;;;;;5054417;28;10443;-78
2021/12/04 03:17:49;;;;;;;;;12.25;11.00;;;;;;;;5053661;28;10598;-79
2021/12/04 03:20:16;;;;;;;;;9.50;7.00;;;;;;;;5034636;28;10566;-77
2021/12/04 03:22:45;;;;;;;;;11.50;9.00;;;;;;;;5044845;28;10557;-77
2021/12/04 03:25:14;;;;;;;;;12.00;10.50;;;;;;;;5033850;28;10581;-78
2021/12/04 03:27:46;;;;;;;;;11.25;11.25;;;;;;;;5043778;28;11270;-77
2021/12/04 03:30:24;;;;;;;;;15.75;11.75;;;;;;;;5034396;28;10734;-77
2021/12/04 03:41:06;;;;;;;;;7.00;5.75;;;;;;;;5031728;28;10313;-77
2021/12/04 03:43:34;;;;;;;;;7.00;7.00;;;;;;;;5027926;28;10380;-78
2021/12/04 03:46:03;;;;;;;;;8.00;8.00;;;;;;;;5043933;28;10496;-79
2021/12/04 03:51:22;;;;;;;;;16.00;13.50;;;;;;;;5035456;28;10554;-79
2021/12/04 03:53:50;;;;;;;;;27.25;27.00;;;;;;;;5055527;28;10690;-78
2021/12/04 03:56:21;;;;;;;;;28.50;24.50;;;;;;;;5045278;28;11985;-79
2021/12/04 03:58:48;;;;;;;;;28.75;27.75;;;;;;;;5044187;28;11219;-79
2021/12/04 04:01:17;;;;;;;;;37.50;31.00;;;;;;;;5037382;28;10915;-78
2021/12/04 04:03:45;;;;;;;;;34.25;31.75;;;;;;;;5027452;28;11177;-79
2021/12/04 04:06:12;;;;;;;;;26.75;26.75;;;;;;;;5044248;28;11136;-78
2021/12/04 04:08:40;;;;;;;;;21.50;18.75;;;;;;;;5061554;28;10975;-78
2021/12/04 04:11:07;;;;;;;;;25.00;20.50;;;;;;;;5060019;28;11518;-76
2021/12/04 04:13:36;;;;;;;;;32.00;28.25;;;;;;;;5061959;28;10847;-76
2021/12/04 04:16:04;;;;;;;;;30.00;25.50;;;;;;;;5060291;28;11124;-77
2021/12/04 04:18:33;;;;;;;;;24.75;23.25;;;;;;;;5039082;28;10950;-78
2021/12/04 04:21:01;;;;;;;;;21.00;20.75;;;;;;;;5043195;28;10897;-80
2021/12/04 04:23:29;;;;;;;;;17.00;12.00;;;;;;;;5048005;28;10856;-78
2021/12/04 04:25:56;;;;;;;;;28.50;24.25;;;;;;;;5042908;28;10960;-77
2021/12/04 04:28:23;;;;;;;;;23.25;22.75;;;;;;;;5044195;28;10705;-79
2021/12/04 04:30:51;;;;;;;;;25.00;25.00;;;;;;;;5041677;28;10799;-78
2021/12/04 04:33:18;;;;;;;;;24.00;23.00;;;;;;;;5049213;28;11139;-80
2021/12/04 04:35:59;;;;;;;;;27.00;27.00;;;;;;;;5022953;28;11016;-77
2021/12/04 04:38:35;;;;;;;;;24.25;21.00;;;;;;;;5042801;28;11041;-78
2021/12/04 05:11:37;;;;;;;;;19.00;16.25;;;;;;;;5047763;28;10551;-78
2021/12/04 05:14:05;;;;;;;;;11.75;11.75;;;;;;;;5046303;28;10744;-77
2021/12/04 05:16:43;;;;;;;;;19.00;10.50;;;;;;;;5060821;28;10708;-78
2021/12/04 05:21:55;;;;;;;;;9.50;8.25;;;;;;;;5048652;28;10631;-78
2021/12/04 05:24:24;;;;;;;;;11.75;8.25;;;;;;;;5046284;28;10644;-77
2021/12/04 05:26:52;;;;;;;;;8.75;7.75;;;;;;;;5042074;28;10736;-77
2021/12/04 05:29:20;;;;;;;;;7.25;7.00;;;;;;;;5048702;28;10590;-78
2021/12/04 05:31:48;;;;;;;;;14.00;10.75;;;;;;;;5049877;28;10585;-77
2021/12/04 05:34:15;;;;;;;;;18.25;17.75;;;;;;;;5057027;28;11474;-76
2021/12/04 05:36:42;;;;;;;;;14.00;11.25;;;;;;;;5042167;28;10805;-77
2021/12/04 05:39:10;;;;;;;;;23.50;19.50;;;;;;;;5043240;28;10982;-77
2021/12/04 05:41:39;;;;;;;;;11.75;11.00;;;;;;;;5044495;28;10948;-76
2021/12/04 05:44:09;;;;;;;;;13.00;12.00;;;;;;;;5042717;28;10865;-77
2021/12/04 05:46:41;;;;;;;;;10.25;10.00;;;;;;;;5050160;28;10967;-78
2021/12/04 05:49:11;;;;;;;;;7.75;7.25;;;;;;;;5036783;28;10781;-77
2021/12/04 05:54:33;;;;;;;;;13.00;11.75;;;;;;;;5010656;28;11236;-77
2021/12/04 05:57:02;;;;;;;;;13.50;13.50;;;;;;;;5045133;28;10953;-76
2021/12/04 05:59:30;;;;;;;;;16.00;12.25;;;;;;;;5055164;28;11616;-77
2021/12/04 06:01:57;;;;;;;;;14.75;12.00;;;;;;;;5046039;28;10824;-75
2021/12/04 06:04:25;;;;;;;;;27.75;21.25;;;;;;;;5056480;28;10805;-75
2021/12/04 06:06:52;;;;;;;;;19.00;16.50;;;;;;;;5042862;28;11023;-74
2021/12/04 06:09:20;;;;;;;;;15.00;15.00;;;;;;;;5033523;28;10976;-73
2021/12/04 06:11:47;;;;;;;;;16.00;14.00;;;;;;;;5046242;28;11696;-79
2021/12/04 06:14:16;;;;;;;;;18.00;16.50;;;;;;;;5051069;28;10945;-79
2021/12/04 06:16:44;;;;;;;;;14.25;11.00;;;;;;;;5043430;28;10718;-80
2021/12/04 06:19:13;;;;;;;;;16.75;14.25;;;;;;;;5040412;28;10735;-76
2021/12/04 06:24:26;;;;;;;;;13.00;10.50;;;;;;;;5043062;28;11062;-78
2021/12/04 06:26:53;;;;;;;;;15.25;10.00;;;;;;;;5037342;28;11085;-76
2021/12/04 06:29:24;;;;;;;;;12.25;10.00;;;;;;;;5045259;28;11003;-81
2021/12/04 06:31:51;;;;;;;;;11.00;9.25;;;;;;;;5015582;28;10960;-81
2021/12/04 06:34:19;;;;;;;;;3.50;3.50;;;;;;;;5040546;28;10921;-78
2021/12/04 06:36:46;;;;;;;;;8.50;7.75;;;;;;;;5037254;28;10826;-77
2021/12/04 06:39:13;;;;;;;;;14.50;10.00;;;;;;;;5038489;28;10950;-74
2021/12/04 06:41:41;;;;;;;;;10.25;8.00;;;;;;;;5033456;28;10951;-79
2021/12/04 06:44:09;;;;;;;;;7.00;7.00;;;;;;;;5032893;28;10993;-81
2021/12/04 06:46:38;;;;;;;;;8.75;8.75;;;;;;;;5040180;28;10923;-77
2021/12/04 06:49:12;;;;;;;;;14.00;13.00;;;;;;;;5044298;28;11187;-76
2021/12/04 06:51:42;;;;;;;;;17.75;15.50;;;;;;;;5043879;28;11162;-76
2021/12/04 06:54:14;;;;;;;;;11.00;11.00;;;;;;;;5033714;28;11884;-76
2021/12/04 06:56:43;;;;;;;;;10.00;10.00;;;;;;;;5033299;28;12080;-77
2021/12/04 06:59:13;;;;;;;;;13.00;11.00;;;;;;;;5026481;28;11192;-78
2021/12/04 07:01:42;;;;;;;;;11.00;11.00;;;;;;;;5036502;28;11103;-80
2021/12/04 07:04:10;;;;;;;;;13.75;11.50;;;;;;;;5042503;28;10920;-79
2021/12/04 07:06:37;;;;;;;;;13.25;11.00;;;;;;;;5034274;28;10950;-75
2021/12/04 07:09:05;;;;;;;;;12.75;12.75;;;;;;;;5039671;28;10877;-75
2021/12/04 07:11:34;;;;;;;;;9.50;9.50;;;;;;;;5027509;28;10895;-76
2021/12/04 07:14:01;;;;;;;;;14.00;11.50;;;;;;;;5037178;28;11136;-78
2021/12/04 07:16:28;;;;;;;;;15.00;13.25;;;;;;;;5040646;28;11038;-75
2021/12/04 07:18:57;;;;;;;;;20.75;17.50;;;;;;;;5044132;28;11106;-78
2021/12/04 07:21:25;;;;;;;;;14.00;14.00;;;;;;;;5030034;28;11091;-76
2021/12/04 07:23:52;;;;;;;;;19.75;14.00;;;;;;;;5040604;28;10962;-79
2021/12/04 07:26:20;;;;;;;;;21.25;12.25;;;;;;;;5041036;28;11128;-71
2021/12/04 07:28:47;;;;;;;;;11.25;10.75;;;;;;;;5041617;28;11082;-78
2021/12/04 07:31:15;;;;;;;;;13.75;11.75;;;;;;;;5043483;28;10955;-78
2021/12/04 07:33:45;;;;;;;;;11.75;11.75;;;;;;;;5042836;28;10977;-78
2021/12/04 07:36:14;;;;;;;;;12.25;10.00;;;;;;;;5031150;28;10810;-78
2021/12/04 07:38:42;;;;;;;;;11.00;10.00;;;;;;;;5050432;28;10857;-78
2021/12/04 07:41:10;;;;;;;;;15.00;13.00;;;;;;;;5040762;28;10860;-78
2021/12/04 07:43:37;;;;;;;;;12.50;12.50;;;;;;;;5042078;28;10884;-77
2021/12/04 07:46:05;;;;;;;;;14.50;11.75;;;;;;;;5023438;28;10834;-78
2021/12/04 07:48:32;;;;;;;;;14.75;11.00;;;;;;;;5042910;28;10558;-78
2021/12/04 07:51:01;;;;;;;;;17.00;15.75;;;;;;;;5041494;28;11494;-78
2021/12/04 07:53:30;;;;;;;;;12.50;12.50;;;;;;;;5045808;28;11506;-78
2021/12/04 07:55:58;;;;;;;;;16.50;16.00;;;;;;;;5030721;28;10682;-78
2021/12/04 07:58:25;;;;;;;;;15.00;15.00;;;;;;;;5038249;28;10554;-81
2021/12/04 08:00:52;;;;;;;;;12.25;12.25;;;;;;;;5042021;28;10502;-79
2021/12/04 08:03:20;;;;;;;;;12.00;12.00;;;;;;;;5041377;28;10424;-76
2021/12/04 08:05:47;;;;;;;;;16.25;16.00;;;;;;;;5042182;28;10355;-76
2021/12/04 08:08:14;;;;;;;;;15.75;12.25;;;;;;;;5040499;28;10437;-75
2021/12/04 08:10:43;;;;;;;;;15.75;14.00;;;;;;;;5044248;28;10272;-77
2021/12/04 08:13:11;;;;;;;;;12.50;12.25;;;;;;;;5062081;28;10394;-77
2021/12/04 08:15:38;;;;;;;;;18.00;16.00;;;;;;;;5044488;28;10269;-77
2021/12/04 08:18:08;;;;;;;;;16.25;16.25;;;;;;;;5040139;28;10544;-78
2021/12/04 08:20:36;;;;;;;;;21.25;18.25;;;;;;;;5040233;28;10329;-79
2021/12/04 08:23:04;;;;;;;;;19.75;17.50;;;;;;;;5042036;28;10443;-77
2021/12/04 08:25:32;;;;;;;;;15.00;12.50;;;;;;;;5034744;28;10569;-79
2021/12/04 08:28:02;;;;;;;;;11.50;11.00;;;;;;;;5034540;28;10273;-81
2021/12/04 08:30:33;;;;;;;;;18.00;18.00;;;;;;;;5035507;28;10393;-81
2021/12/04 08:33:00;;;;;;;;;14.75;14.75;;;;;;;;5037166;28;10323;-80
2021/12/04 08:35:31;;;;;;;;;14.50;11.75;;;;;;;;5024245;28;10289;-79
2021/12/04 08:38:00;;;;;;;;;15.75;9.75;;;;;;;;5017546;28;10102;-79
2021/12/04 08:40:28;;;;;;;;;9.50;8.25;;;;;;;;5019703;28;11003;-82
2021/12/04 08:42:55;;;;;;;;;10.50;8.25;;;;;;;;5016090;28;10129;-81
2021/12/04 08:45:24;;;;;;;;;11.75;10.75;;;;;;;;5029513;28;9952;-81
2021/12/04 08:47:52;;;;;;;;;13.50;12.00;;;;;;;;5030981;28;10034;-83
2021/12/04 08:50:23;;;;;;;;;12.00;9.25;;;;;;;;5038449;28;10023;-80
2021/12/04 08:52:51;;;;;;;;;11.00;7.25;;;;;;;;5015206;28;9983;-81
2021/12/04 08:55:19;;;;;;;;;7.75;6.50;;;;;;;;5030388;28;9901;-84
2021/12/04 08:57:47;;;;;;;;;12.00;8.25;;;;;;;;5018440;28;9978;-81
2021/12/04 09:00:16;;;;;;;;;6.75;6.75;;;;;;;;5028467;28;9800;-80
2021/12/04 09:02:47;;;;;;;;;4.00;3.00;;;;;;;;5032527;28;9893;-81
2021/12/04 09:05:15;;;;;;;;;4.00;4.00;;;;;;;;5041565;28;9556;-84
2021/12/04 09:07:43;;;;;;;;;3.25;3.25;;;;;;;;5047678;28;9767;-82
2021/12/04 09:10:12;;;;;;;;;4.00;4.00;;;;;;;;5022785;28;9608;-83
2021/12/04 09:12:40;;;;;;;;;2.00;2.00;;;;;;;;5027760;28;9717;-83
2021/12/04 09:15:10;;;;;;;;;2.00;2.00;;;;;;;;5018118;28;9612;-80
2021/12/04 09:17:38;;;;;;;;;2.00;2.00;;;;;;;;5032695;28;9498;-82
2021/12/04 09:20:09;;;;;;;;;2.00;2.00;;;;;;;;5037590;28;10062;-82
2021/12/04 09:22:37;;;;;;;;;1.75;1.75;;;;;;;;5037656;28;9454;-81
2021/12/04 09:25:06;;;;;;;;;2.25;2.25;;;;;;;;5040151;28;9563;-82
2021/12/04 09:27:57;;;;;;;;;2.00;2.00;;;;;;;;5036877;28;9568;-82
2021/12/04 10:01:25;;;;;;;;;0.00;0.00;;;;;;;;5026839;28;9200;-82
2021/12/04 10:04:19;;;;;;;;;0.00;0.00;;;;;;;;5040691;28;9241;-79
2021/12/04 10:24:10;;;;;;;;;0.00;0.00;;;;;;;;5030685;28;9933;-78
2021/12/04 10:32:35;;;;;;;;;0.00;0.00;;;;;;;;5042815;28;10155;-77
2021/12/04 10:35:10;;;;;;;;;1.00;0.00;;;;;;;;5058355;28;10144;-81
2021/12/04 10:37:48;;;;;;;;;1.00;1.00;;;;;;;;5029126;28;10332;-76
2021/12/04 10:40:16;;;;;;;;;0.00;0.00;;;;;;;;5040762;28;10383;-79
2021/12/04 10:42:51;;;;;;;;;0.00;0.00;;;;;;;;5043951;28;10314;-77
2021/12/04 10:45:19;;;;;;;;;2.00;1.00;;;;;;;;5042993;28;10309;-78
2021/12/04 10:47:56;;;;;;;;;0.00;0.00;;;;;;;;5042387;28;10323;-80
2021/12/04 10:50:31;;;;;;;;;0.00;0.00;;;;;;;;5041342;28;10310;-79
2021/12/04 10:53:01;;;;;;;;;0.00;0.00;;;;;;;;5020371;28;10305;-77
2021/12/04 10:55:33;;;;;;;;;0.00;0.00;;;;;;;;5058842;28;10353;-78
2021/12/04 11:01:04;;;;;;;;;0.00;0.00;;;;;;;;5033460;28;10193;-76
2021/12/04 11:26:44;;;;;;;;;0.00;0.00;;;;;;;;5042839;28;10528;-79
2021/12/04 11:35:29;;;;;;;;;0.00;0.00;;;;;;;;5031501;28;11363;-78
2021/12/04 11:43:52;;;;;;;;;0.00;0.00;;;;;;;;5047385;28;10270;-76
2021/12/04 11:46:23;;;;;;;;;0.00;0.00;;;;;;;;5061350;28;10202;-77
2021/12/04 11:48:52;;;;;;;;;0.00;0.00;;;;;;;;5041165;28;10302;-77
2021/12/04 11:51:21;;;;;;;;;0.00;0.00;;;;;;;;5033344;28;10201;-77
2021/12/04 11:53:53;;;;;;;;;1.00;0.00;;;;;;;;5041636;28;10273;-77
2021/12/04 11:56:22;;;;;;;;;0.00;0.00;;;;;;;;5033520;28;10129;-78
2021/12/04 11:58:51;;;;;;;;;1.00;0.00;;;;;;;;5039433;28;10365;-78
2021/12/04 12:01:28;;;;;;;;;0.00;0.00;;;;;;;;5040852;28;10332;-76
2021/12/04 12:03:59;;;;;;;;;0.00;0.00;;;;;;;;5061490;28;10403;-78
2021/12/04 12:06:33;;;;;;;;;0.00;0.00;;;;;;;;5057234;28;10455;-75
2021/12/04 12:09:10;;;;;;;;;0.00;0.00;;;;;;;;5062429;28;10450;-76
2021/12/04 12:11:37;;;;;;;;;1.00;0.00;;;;;;;;5050531;28;10422;-77
2021/12/04 12:14:09;;;;;;;;;0.00;0.00;;;;;;;;5044881;28;10408;-78
2021/12/04 12:16:40;;;;;;;;;0.00;0.00;;;;;;;;5041171;28;10290;-77
2021/12/04 12:19:15;;;;;;;;;0.00;0.00;;;;;;;;5041755;28;10403;-76
2021/12/04 12:21:50;;;;;;;;;0.00;0.00;;;;;;;;5042316;28;10440;-75
2021/12/04 12:27:25;;;;;;;;;0.00;0.00;;;;;;;;5025682;28;10341;-77
2021/12/04 12:38:33;;;;;;;;;1.75;0.00;;;;;;;;5035287;28;10235;-77
2021/12/04 12:41:03;;;;;;;;;0.00;0.00;;;;;;;;5035767;28;10470;-76
2021/12/04 12:43:45;;;;;;;;;0.00;0.00;;;;;;;;5041973;28;10161;-77
2021/12/04 12:46:13;;;;;;;;;1.00;0.00;;;;;;;;5040056;28;10112;-78
2021/12/04 12:48:46;;;;;;;;;0.00;0.00;;;;;;;;5039852;28;10251;-77
2021/12/04 12:51:16;;;;;;;;;0.00;0.00;;;;;;;;5041475;28;10155;-76
2021/12/04 12:53:45;;;;;;;;;0.00;0.00;;;;;;;;5047070;28;10097;-76
2021/12/04 12:56:16;;;;;;;;;1.00;1.00;;;;;;;;5061629;28;10155;-75
2021/12/04 12:58:47;;;;;;;;;1.00;1.00;;;;;;;;5043173;28;10198;-77
2021/12/04 13:13:28;;;;;;;;;1.00;1.00;;;;;;;;5026237;28;10116;-77
2021/12/04 13:16:01;;;;;;;;;1.00;0.00;;;;;;;;5022345;28;10187;-75
2021/12/04 13:18:30;;;;;;;;;0.00;0.00;;;;;;;;5042157;28;10114;-77
2021/12/04 13:21:01;;;;;;;;;0.00;0.00;;;;;;;;5036195;28;10145;-77
2021/12/04 13:23:31;;;;;;;;;1.00;1.00;;;;;;;;5041501;28;10830;-77
2021/12/04 13:26:00;;;;;;;;;2.00;1.00;;;;;;;;5040483;28;10237;-76
2021/12/04 13:28:29;;;;;;;;;2.00;0.25;;;;;;;;5041588;28;10247;-77
2021/12/04 13:30:58;;;;;;;;;0.25;0.25;;;;;;;;5042637;28;10189;-77
2021/12/04 13:33:25;;;;;;;;;0.25;0.00;;;;;;;;5043136;28;10348;-76
2021/12/04 13:35:53;;;;;;;;;0.00;0.00;;;;;;;;5043532;28;10245;-78
2021/12/04 13:38:22;;;;;;;;;0.00;0.00;;;;;;;;5039583;28;10406;-81
2021/12/04 13:40:53;;;;;;;;;2.25;1.00;;;;;;;;5038109;28;10233;-78
2021/12/04 13:43:21;;;;;;;;;3.00;1.75;;;;;;;;5058474;28;10382;-78
2021/12/04 13:45:56;;;;;;;;;0.75;0.75;;;;;;;;5046672;28;10297;-78
2021/12/04 13:48:24;;;;;;;;;0.00;0.00;;;;;;;;5047191;28;10396;-80
2021/12/04 13:50:52;;;;;;;;;0.00;0.00;;;;;;;;5039821;28;10303;-76
2021/12/04 13:53:25;;;;;;;;;1.00;1.00;;;;;;;;5026653;28;10507;-76
2021/12/04 13:55:57;;;;;;;;;0.00;0.00;;;;;;;;5037697;28;10755;-75
2021/12/04 13:58:24;;;;;;;;;0.25;0.25;;;;;;;;5037123;28;11024;-75
2021/12/04 14:00:52;;;;;;;;;1.00;1.00;;;;;;;;5043506;28;10189;-76
2021/12/04 14:03:23;;;;;;;;;1.00;1.00;;;;;;;;5044221;28;10349;-76
2021/12/04 14:05:51;;;;;;;;;4.50;0.75;;;;;;;;5044195;28;10362;-76
2021/12/04 14:08:18;;;;;;;;;0.00;0.00;;;;;;;;5040735;28;10346;-76
2021/12/04 14:10:47;;;;;;;;;0.00;0.00;;;;;;;;5041885;28;10453;-77
2021/12/04 14:13:20;;;;;;;;;1.00;1.00;;;;;;;;5037108;28;10238;-77
2021/12/04 14:15:50;;;;;;;;;3.50;1.00;;;;;;;;5046561;28;10493;-78
2021/12/04 14:18:19;;;;;;;;;1.00;1.00;;;;;;;;5043410;28;10381;-79
2021/12/04 14:20:51;;;;;;;;;1.00;1.00;;;;;;;;5049622;28;10313;-80
2021/12/04 14:23:19;;;;;;;;;0.00;0.00;;;;;;;;5046130;28;10228;-79
2021/12/04 14:25:53;;;;;;;;;0.50;0.50;;;;;;;;5053510;28;10142;-78
2021/12/04 14:28:25;;;;;;;;;0.75;0.75;;;;;;;;5050820;28;10172;-78
2021/12/04 14:30:53;;;;;;;;;1.00;1.00;;;;;;;;5042740;28;10173;-77
2021/12/04 14:33:22;;;;;;;;;0.50;0.00;;;;;;;;5058776;28;11077;-77
2021/12/04 14:35:53;;;;;;;;;2.00;2.00;;;;;;;;5056700;28;10152;-78
2021/12/04 14:38:22;;;;;;;;;0.50;0.25;;;;;;;;5058742;28;10279;-77
2021/12/04 14:40:52;;;;;;;;;1.00;1.00;;;;;;;;5041186;28;10152;-79
2021/12/04 14:43:24;;;;;;;;;1.00;1.00;;;;;;;;5038996;28;10381;-80
2021/12/04 14:45:55;;;;;;;;;1.25;0.00;;;;;;;;5043494;28;10562;-78
2021/12/04 14:48:26;;;;;;;;;1.25;1.25;;;;;;;;5050595;28;10479;-78
2021/12/04 14:51:05;;;;;;;;;1.00;0.00;;;;;;;;5052004;28;10534;-76
2021/12/04 14:53:33;;;;;;;;;0.50;0.00;;;;;;;;5045521;28;10416;-78
2021/12/04 14:56:03;;;;;;;;;0.50;0.50;;;;;;;;5041684;28;10493;-79
2021/12/04 14:58:32;;;;;;;;;0.00;0.00;;;;;;;;5042215;28;10725;-77
2021/12/04 15:01:01;;;;;;;;;1.75;0.00;;;;;;;;5060176;28;10481;-77
2021/12/04 15:03:35;;;;;;;;;0.00;0.00;;;;;;;;5016432;28;10615;-78
2021/12/04 15:06:04;;;;;;;;;0.75;0.75;;;;;;;;5041321;28;11285;-76
2021/12/04 15:08:34;;;;;;;;;0.00;0.00;;;;;;;;5043097;28;10627;-77
2021/12/04 15:11:03;;;;;;;;;1.50;0.00;;;;;;;;5043273;28;10638;-77
2021/12/04 15:13:35;;;;;;;;;0.25;0.25;;;;;;;;5034351;28;11489;-79
2021/12/04 15:16:06;;;;;;;;;0.75;0.00;;;;;;;;5046651;28;10591;-77
2021/12/04 15:18:35;;;;;;;;;1.25;0.00;;;;;;;;5058998;28;10691;-77
2021/12/04 15:21:05;;;;;;;;;4.50;0.00;;;;;;;;5028352;28;10531;-76
2021/12/04 15:23:36;;;;;;;;;0.00;0.00;;;;;;;;5054053;28;10513;-76
2021/12/04 15:26:09;;;;;;;;;0.00;0.00;;;;;;;;5043857;28;11493;-79
2021/12/04 15:28:44;;;;;;;;;0.00;0.00;;;;;;;;5042827;28;10738;-78
2021/12/04 15:31:12;;;;;;;;;0.00;0.00;;;;;;;;5039593;28;10549;-79
2021/12/04 15:33:42;;;;;;;;;0.00;0.00;;;;;;;;5025698;28;10695;-77
2021/12/04 15:36:20;;;;;;;;;0.00;0.00;;;;;;;;5039416;28;10608;-77
2021/12/04 15:38:50;;;;;;;;;4.00;1.00;;;;;;;;5050518;28;11364;-78
2021/12/04 15:41:32;;;;;;;;;0.25;0.25;;;;;;;;5042187;28;10805;-78
2021/12/04 15:44:13;;;;;;;;;0.50;0.25;;;;;;;;5037051;28;11642;-79
2021/12/04 15:46:50;;;;;;;;;1.75;0.00;;;;;;;;5039304;28;11714;-77
2021/12/04 15:54:52;;;;;;;;;1.25;1.00;;;;;;;;5034262;28;10848;-77
2021/12/04 15:57:21;;;;;;;;;1.00;1.00;;;;;;;;5041333;28;10897;-77
2021/12/04 15:59:52;;;;;;;;;1.00;1.00;;;;;;;;5043082;28;10899;-77
2021/12/04 16:02:29;;;;;;;;;1.00;1.00;;;;;;;;5041338;28;10977;-78
2021/12/04 16:05:07;;;;;;;;;0.75;0.00;;;;;;;;5025668;28;10919;-76
2021/12/04 16:07:34;;;;;;;;;0.00;0.00;;;;;;;;5041336;28;10719;-76
2021/12/04 16:10:11;;;;;;;;;0.00;0.00;;;;;;;;5034226;28;10947;-75
2021/12/04 16:12:39;;;;;;;;;0.00;0.00;;;;;;;;5036937;28;10981;-75
2021/12/04 16:15:10;;;;;;;;;5.00;1.00;;;;;;;;5036488;28;10889;-83
2021/12/04 16:17:39;;;;;;;;;3.25;1.25;;;;;;;;5050168;28;11021;-89
2021/12/04 16:20:11;;;;;;;;;2.75;1.75;;;;;;;;5058916;28;10980;-84
2021/12/04 16:22:40;;;;;;;;;1.75;1.00;;;;;;;;5040664;28;11057;-84
2021/12/04 16:25:11;;;;;;;;;3.75;2.00;;;;;;;;5043086;28;11091;-84
2021/12/04 16:27:52;;;;;;;;;2.00;0.50;;;;;;;;5026958;28;11157;-80
2021/12/04 16:30:40;;;;;;;;;2.00;1.00;;;;;;;;5041218;28;11051;-87
2021/12/04 16:35:57;;;;;;;;;1.25;1.25;;;;;;;;5038976;28;11068;-83
2021/12/04 16:38:25;;;;;;;;;1.00;1.00;;;;;;;;5031232;28;11169;-84
2021/12/04 16:40:54;;;;;;;;;4.25;1.75;;;;;;;;5039556;28;11069;-86
2021/12/04 16:43:30;;;;;;;;;1.00;1.00;;;;;;;;5038564;28;11220;-85
2021/12/04 16:46:01;;;;;;;;;0.25;0.25;;;;;;;;5031316;28;11131;-82
2021/12/04 16:48:33;;;;;;;;;0.00;0.00;;;;;;;;5040258;28;11058;-79
2021/12/04 16:56:50;;;;;;;;;0.00;0.00;;;;;;;;5033825;28;11197;-78
2021/12/04 16:59:19;;;;;;;;;1.00;1.00;;;;;;;;5034398;28;11085;-79
2021/12/04 17:01:51;;;;;;;;;1.00;1.00;;;;;;;;5039019;28;11076;-80
2021/12/04 17:04:19;;;;;;;;;0.50;0.00;;;;;;;;5029683;28;11063;-78
2021/12/04 17:06:49;;;;;;;;;0.25;0.25;;;;;;;;5028810;28;11259;-82
2021/12/04 17:09:16;;;;;;;;;1.50;1.50;;;;;;;;5035862;28;11221;-79
2021/12/04 17:11:43;;;;;;;;;1.25;1.00;;;;;;;;5044454;28;11397;-81
2021/12/04 17:14:11;;;;;;;;;1.00;1.00;;;;;;;;5041138;28;11219;-81
2021/12/04 17:16:38;;;;;;;;;2.00;2.00;;;;;;;;5035178;28;11144;-82
2021/12/04 17:19:09;;;;;;;;;3.50;3.25;;;;;;;;5022541;28;11413;-80
2021/12/04 17:21:38;;;;;;;;;4.00;4.00;;;;;;;;5042692;28;11482;-83
2021/12/04 17:24:08;;;;;;;;;2.00;2.00;;;;;;;;5032521;28;11437;-79
2021/12/04 17:26:36;;;;;;;;;2.00;2.00;;;;;;;;5020663;28;11410;-79
2021/12/04 17:29:04;;;;;;;;;2.25;2.25;;;;;;;;5042527;28;12059;-80
2021/12/04 17:31:31;;;;;;;;;2.50;1.00;;;;;;;;5038804;28;12236;-80
2021/12/04 17:34:00;;;;;;;;;2.00;2.00;;;;;;;;5031293;28;11421;-79
2021/12/04 17:36:31;;;;;;;;;1.00;1.00;;;;;;;;5040470;28;11410;-79
2021/12/04 17:39:00;;;;;;;;;1.50;1.50;;;;;;;;5035160;28;11373;-80
2021/12/04 17:41:30;;;;;;;;;2.00;2.00;;;;;;;;5031467;28;11471;-80
2021/12/04 17:43:58;;;;;;;;;3.25;1.00;;;;;;;;5031115;28;11403;-80
2021/12/04 17:46:27;;;;;;;;;1.00;1.00;;;;;;;;5039511;28;11539;-80
2021/12/04 17:48:56;;;;;;;;;2.50;2.50;;;;;;;;5044148;28;11549;-79
2021/12/04 17:51:24;;;;;;;;;4.00;1.00;;;;;;;;5040940;28;11547;-79
2021/12/04 17:53:55;;;;;;;;;4.00;1.00;;;;;;;;5041688;28;12213;-80
2021/12/04 17:56:22;;;;;;;;;1.00;1.00;;;;;;;;5044279;28;11382;-79